sensor_id;sensor_type;location;lat;lon;timestamp;pressure;altitude;pressure_sealevel;temperature;humidity
82388;BME280;72027;47.420;9.310;2023-11-22T00:01:23;93523.91;;;3.31;97.80
82388;BME280;72027;47.420;9.310;2023-11-22T00:03:52;93519.19;;;3.31;97.34
82388;BME280;72027;47.420;9.310;2023-11-22T00:06:20;93513.38;;;3.29;97.23
82388;BME280;72027;47.420;9.310;2023-11-22T00:08:49;93513.78;;;3.28;97.31
82388;BME280;72027;47.420;9.310;2023-11-22T00:11:18;93510.28;;;3.27;97.42
82388;BME280;72027;47.420;9.310;2023-11-22T00:13:46;93514.97;;;3.27;97.23
82388;BME280;72027;47.420;9.310;2023-11-22T00:16:15;93514.28;;;3.23;97.28
82388;BME280;72027;47.420;9.310;2023-11-22T00:18:43;93513.84;;;3.24;97.11
82388;BME280;72027;47.420;9.310;2023-11-22T00:21:11;93519.31;;;3.24;96.97
82388;BME280;72027;47.420;9.310;2023-11-22T00:23:39;93515.81;;;3.24;97.39
82388;BME280;72027;47.420;9.310;2023-11-22T00:26:08;93521.28;;;3.24;97.32
82388;BME280;72027;47.420;9.310;2023-11-22T00:28:35;93524.03;;;3.24;96.83
82388;BME280;72027;47.420;9.310;2023-11-22T00:31:03;93521.28;;;3.24;97.12
82388;BME280;72027;47.420;9.310;2023-11-22T00:33:31;93523.25;;;3.23;97.29
82388;BME280;72027;47.420;9.310;2023-11-22T00:35:59;93517.78;;;3.23;97.43
82388;BME280;72027;47.420;9.310;2023-11-22T00:38:26;93520.13;;;3.25;97.85
82388;BME280;72027;47.420;9.310;2023-11-22T00:40:54;93520.88;;;3.25;97.50
82388;BME280;72027;47.420;9.310;2023-11-22T00:43:24;93518.13;;;3.25;97.27
82388;BME280;72027;47.420;9.310;2023-11-22T00:45:53;93520.44;;;3.27;97.13
82388;BME280;72027;47.420;9.310;2023-11-22T00:48:20;93520.44;;;3.27;97.14
82388;BME280;72027;47.420;9.310;2023-11-22T00:50:48;93523.19;;;3.27;97.62
82388;BME280;72027;47.420;9.310;2023-11-22T00:53:16;93528.66;;;3.27;97.74
82388;BME280;72027;47.420;9.310;2023-11-22T00:55:45;93535.25;;;3.29;97.48
82388;BME280;72027;47.420;9.310;2023-11-22T00:58:12;93530.22;;;3.28;97.65
82388;BME280;72027;47.420;9.310;2023-11-22T01:00:41;93547.78;;;3.30;97.44
82388;BME280;72027;47.420;9.310;2023-11-22T01:03:09;93541.09;;;3.31;97.26
82388;BME280;72027;47.420;9.310;2023-11-22T01:05:39;93546.59;;;3.31;97.48
82388;BME280;72027;47.420;9.310;2023-11-22T01:08:09;93541.09;;;3.31;97.19
82388;BME280;72027;47.420;9.310;2023-11-22T01:10:36;93539.56;;;3.30;97.71
82388;BME280;72027;47.420;9.310;2023-11-22T01:13:04;93534.88;;;3.31;97.27
82388;BME280;72027;47.420;9.310;2023-11-22T01:15:32;93543.06;;;3.31;97.69
82388;BME280;72027;47.420;9.310;2023-11-22T01:18:02;93542.31;;;3.30;97.23
82388;BME280;72027;47.420;9.310;2023-11-22T01:20:30;93550.53;;;3.30;97.21
82388;BME280;72027;47.420;9.310;2023-11-22T01:22:57;93556.38;;;3.33;97.34
82388;BME280;72027;47.420;9.310;2023-11-22T01:25:25;93550.53;;;3.30;97.30
82388;BME280;72027;47.420;9.310;2023-11-22T01:27:54;93552.50;;;3.30;97.12
82388;BME280;72027;47.420;9.310;2023-11-22T01:30:22;93557.97;;;3.30;97.57
82388;BME280;72027;47.420;9.310;2023-11-22T01:32:50;93548.97;;;3.29;97.25
82388;BME280;72027;47.420;9.310;2023-11-22T01:35:19;93556.00;;;3.30;97.71
82388;BME280;72027;47.420;9.310;2023-11-22T01:37:47;93554.03;;;3.31;97.19
82388;BME280;72027;47.420;9.310;2023-11-22T01:40:15;93545.03;;;3.30;97.69
82388;BME280;72027;47.420;9.310;2023-11-22T01:42:45;93554.44;;;3.29;97.69
82388;BME280;72027;47.420;9.310;2023-11-22T01:45:13;93547.00;;;3.30;97.45
82388;BME280;72027;47.420;9.310;2023-11-22T01:47:41;93538.84;;;3.26;97.12
82388;BME280;72027;47.420;9.310;2023-11-22T01:50:10;93545.44;;;3.29;97.69
82388;BME280;72027;47.420;9.310;2023-11-22T01:52:39;93551.34;;;3.27;97.01
82388;BME280;72027;47.420;9.310;2023-11-22T01:55:08;93534.94;;;3.27;97.47
82388;BME280;72027;47.420;9.310;2023-11-22T01:57:37;93549.75;;;3.30;97.44
82388;BME280;72027;47.420;9.310;2023-11-22T02:00:06;93548.19;;;3.29;96.83
82388;BME280;72027;47.420;9.310;2023-11-22T02:02:40;93552.13;;;3.28;97.18
82388;BME280;72027;47.420;9.310;2023-11-22T02:05:08;93548.97;;;3.29;97.60
82388;BME280;72027;47.420;9.310;2023-11-22T02:07:40;93550.53;;;3.30;97.27
82388;BME280;72027;47.420;9.310;2023-11-22T02:10:09;93553.66;;;3.29;97.30
82388;BME280;72027;47.420;9.310;2023-11-22T02:12:37;93552.13;;;3.28;97.61
82388;BME280;72027;47.420;9.310;2023-11-22T02:15:06;93556.84;;;3.27;97.28
82388;BME280;72027;47.420;9.310;2023-11-22T02:17:34;93551.69;;;3.29;97.32
82388;BME280;72027;47.420;9.310;2023-11-22T02:20:03;93557.16;;;3.29;97.23
82388;BME280;72027;47.420;9.310;2023-11-22T02:22:33;93556.41;;;3.29;97.37
82388;BME280;72027;47.420;9.310;2023-11-22T02:25:02;93560.34;;;3.28;97.23
82388;BME280;72027;47.420;9.310;2023-11-22T02:27:31;93566.22;;;3.26;97.86
82388;BME280;72027;47.420;9.310;2023-11-22T02:29:58;93558.44;;;3.25;97.07
82388;BME280;72027;47.420;9.310;2023-11-22T02:32:26;93558.00;;;3.26;97.00
82388;BME280;72027;47.420;9.310;2023-11-22T02:34:54;93562.31;;;3.27;97.66
82388;BME280;72027;47.420;9.310;2023-11-22T02:37:22;93564.63;;;3.29;97.59
82388;BME280;72027;47.420;9.310;2023-11-22T02:40:09;93562.66;;;3.29;97.35
82388;BME280;72027;47.420;9.310;2023-11-22T02:42:40;93572.44;;;3.30;97.32
82388;BME280;72027;47.420;9.310;2023-11-22T02:45:09;93567.72;;;3.31;96.92
82388;BME280;72027;47.420;9.310;2023-11-22T02:47:37;93566.19;;;3.30;96.71
82388;BME280;72027;47.420;9.310;2023-11-22T02:50:06;93567.72;;;3.31;97.30
82388;BME280;72027;47.420;9.310;2023-11-22T02:52:34;93572.44;;;3.30;96.71
82388;BME280;72027;47.420;9.310;2023-11-22T02:55:01;93575.94;;;3.31;96.64
82388;BME280;72027;47.420;9.310;2023-11-22T02:57:31;93584.91;;;3.31;97.57
82388;BME280;72027;47.420;9.310;2023-11-22T02:59:59;93579.44;;;3.31;96.80
82388;BME280;72027;47.420;9.310;2023-11-22T03:02:27;93573.97;;;3.31;97.05
82388;BME280;72027;47.420;9.310;2023-11-22T03:04:54;93566.94;;;3.30;96.89
82388;BME280;72027;47.420;9.310;2023-11-22T03:07:22;93576.69;;;3.31;96.65
82388;BME280;72027;47.420;9.310;2023-11-22T03:09:50;93569.69;;;3.30;97.03
82388;BME280;72027;47.420;9.310;2023-11-22T03:12:19;93575.16;;;3.30;96.90
82388;BME280;72027;47.420;9.310;2023-11-22T03:14:48;93584.16;;;3.31;96.56
82388;BME280;72027;47.420;9.310;2023-11-22T03:17:16;93576.69;;;3.31;97.38
82388;BME280;72027;47.420;9.310;2023-11-22T03:19:44;93575.16;;;3.30;97.09
82388;BME280;72027;47.420;9.310;2023-11-22T03:22:12;93580.63;;;3.30;97.17
82388;BME280;72027;47.420;9.310;2023-11-22T03:24:40;93582.63;;;3.30;96.74
82388;BME280;72027;47.420;9.310;2023-11-22T03:27:08;93582.63;;;3.30;96.50
82388;BME280;72027;47.420;9.310;2023-11-22T03:29:37;93586.13;;;3.30;97.21
82388;BME280;72027;47.420;9.310;2023-11-22T03:32:07;93586.47;;;3.33;97.19
82388;BME280;72027;47.420;9.310;2023-11-22T03:34:35;93593.13;;;3.31;97.34
82388;BME280;72027;47.420;9.310;2023-11-22T03:37:03;93588.84;;;3.30;97.39
82388;BME280;72027;47.420;9.310;2023-11-22T03:39:31;93592.34;;;3.31;96.80
82388;BME280;72027;47.420;9.310;2023-11-22T03:41:59;93588.41;;;3.32;97.37
82388;BME280;72027;47.420;9.310;2023-11-22T03:44:27;93590.41;;;3.31;96.77
82388;BME280;72027;47.420;9.310;2023-11-22T03:46:57;93594.69;;;3.33;96.72
82388;BME280;72027;47.420;9.310;2023-11-22T03:49:26;93598.19;;;3.33;97.00
82388;BME280;72027;47.420;9.310;2023-11-22T03:51:54;93591.97;;;3.33;96.64
82388;BME280;72027;47.420;9.310;2023-11-22T03:54:22;93604.44;;;3.34;97.14
82388;BME280;72027;47.420;9.310;2023-11-22T03:56:50;93611.47;;;3.35;96.96
82388;BME280;72027;47.420;9.310;2023-11-22T03:59:18;93607.97;;;3.34;96.95
82388;BME280;72027;47.420;9.310;2023-11-22T04:01:46;93603.25;;;3.35;96.75
82388;BME280;72027;47.420;9.310;2023-11-22T04:04:14;93609.94;;;3.34;97.50
82388;BME280;72027;47.420;9.310;2023-11-22T04:06:43;93611.47;;;3.35;96.95
82388;BME280;72027;47.420;9.310;2023-11-22T04:09:11;93619.66;;;3.38;97.16
82388;BME280;72027;47.420;9.310;2023-11-22T04:11:39;93618.50;;;3.36;97.48
82388;BME280;72027;47.420;9.310;2023-11-22T04:14:07;93620.09;;;3.33;97.46
82388;BME280;72027;47.420;9.310;2023-11-22T04:16:34;93613.88;;;3.33;97.00
82388;BME280;72027;47.420;9.310;2023-11-22T04:19:02;93618.91;;;3.34;97.77
82388;BME280;72027;47.420;9.310;2023-11-22T04:21:30;93624.03;;;3.32;97.30
82388;BME280;72027;47.420;9.310;2023-11-22T04:23:59;93629.94;;;3.30;97.91
82388;BME280;72027;47.420;9.310;2023-11-22T04:26:27;93622.13;;;3.29;96.88
82388;BME280;72027;47.420;9.310;2023-11-22T04:28:55;93629.19;;;3.26;97.47
82388;BME280;72027;47.420;9.310;2023-11-22T04:31:23;93631.16;;;3.26;96.92
82388;BME280;72027;47.420;9.310;2023-11-22T04:33:51;93637.84;;;3.25;96.78
82388;BME280;72027;47.420;9.310;2023-11-22T04:36:19;93645.25;;;3.24;97.31
82388;BME280;72027;47.420;9.310;2023-11-22T04:38:48;93644.13;;;3.22;96.85
82388;BME280;72027;47.420;9.310;2023-11-22T04:41:17;93639.47;;;3.19;96.93
82388;BME280;72027;47.420;9.310;2023-11-22T04:43:46;93646.97;;;3.15;96.22
82388;BME280;72027;47.420;9.310;2023-11-22T04:46:14;93649.75;;;3.11;95.42
82388;BME280;72027;47.420;9.310;2023-11-22T04:48:42;93644.69;;;3.09;96.03
82388;BME280;72027;47.420;9.310;2023-11-22T04:51:11;93646.28;;;3.07;95.78
82388;BME280;72027;47.420;9.310;2023-11-22T04:53:39;93647.13;;;3.04;96.13
82388;BME280;72027;47.420;9.310;2023-11-22T04:56:10;93654.97;;;3.02;95.81
82388;BME280;72027;47.420;9.310;2023-11-22T04:58:39;93647.97;;;2.97;95.15
82388;BME280;72027;47.420;9.310;2023-11-22T05:01:07;93655.41;;;2.97;94.92
82388;BME280;72027;47.420;9.310;2023-11-22T05:03:37;93656.63;;;2.96;95.81
82388;BME280;72027;47.420;9.310;2023-11-22T05:06:05;93655.03;;;2.95;96.16
82388;BME280;72027;47.420;9.310;2023-11-22T05:08:33;93668.00;;;2.91;95.75
82388;BME280;72027;47.420;9.310;2023-11-22T05:11:02;93670.75;;;2.91;96.47
82388;BME280;72027;47.420;9.310;2023-11-22T05:13:30;93667.25;;;2.90;96.17
82388;BME280;72027;47.420;9.310;2023-11-22T05:15:59;93674.31;;;2.88;96.26
82388;BME280;72027;47.420;9.310;2023-11-22T05:18:27;93680.94;;;2.86;96.46
82388;BME280;72027;47.420;9.310;2023-11-22T05:20:55;93681.38;;;2.85;95.84
82388;BME280;72027;47.420;9.310;2023-11-22T05:23:23;93684.13;;;2.81;95.84
82388;BME280;72027;47.420;9.310;2023-11-22T05:25:50;93685.72;;;2.79;96.66
82388;BME280;72027;47.420;9.310;2023-11-22T05:28:18;93690.84;;;2.77;96.90
82388;BME280;72027;47.420;9.310;2023-11-22T05:30:46;93695.97;;;2.75;96.73
82388;BME280;72027;47.420;9.310;2023-11-22T05:33:15;93701.81;;;2.73;96.63
82388;BME280;72027;47.420;9.310;2023-11-22T05:35:43;93705.38;;;2.70;96.10
82388;BME280;72027;47.420;9.310;2023-11-22T05:38:11;93715.56;;;2.70;96.18
82388;BME280;72027;47.420;9.310;2023-11-22T05:40:39;93714.41;;;2.67;96.38
82388;BME280;72027;47.420;9.310;2023-11-22T05:43:07;93714.81;;;2.65;95.96
82388;BME280;72027;47.420;9.310;2023-11-22T05:45:38;93718.34;;;2.66;96.44
82388;BME280;72027;47.420;9.310;2023-11-22T05:48:06;93726.53;;;2.66;96.80
82388;BME280;72027;47.420;9.310;2023-11-22T05:50:35;93726.53;;;2.66;96.14
82388;BME280;72027;47.420;9.310;2023-11-22T05:53:03;93733.94;;;2.65;96.80
82388;BME280;72027;47.420;9.310;2023-11-22T05:55:31;93738.66;;;2.65;96.59
82388;BME280;72027;47.420;9.310;2023-11-22T05:57:58;93732.00;;;2.66;96.51
82388;BME280;72027;47.420;9.310;2023-11-22T06:00:26;93734.38;;;2.64;96.44
82388;BME280;72027;47.420;9.310;2023-11-22T06:02:54;93735.91;;;2.65;96.39
82388;BME280;72027;47.420;9.310;2023-11-22T06:05:22;93733.59;;;2.63;96.87
82388;BME280;72027;47.420;9.310;2023-11-22T06:07:51;93741.44;;;2.61;96.52
82388;BME280;72027;47.420;9.310;2023-11-22T06:10:19;93733.63;;;2.60;96.94
82388;BME280;72027;47.420;9.310;2023-11-22T06:12:47;93732.09;;;2.59;97.59
82388;BME280;72027;47.420;9.310;2023-11-22T06:15:15;93739.09;;;2.60;96.96
82388;BME280;72027;47.420;9.310;2023-11-22T06:17:42;93741.44;;;2.61;97.08
82388;BME280;72027;47.420;9.310;2023-11-22T06:20:11;93739.06;;;2.63;97.81
82388;BME280;72027;47.420;9.310;2023-11-22T06:22:39;93736.72;;;2.62;97.68
82388;BME280;72027;47.420;9.310;2023-11-22T06:25:10;93741.44;;;2.61;98.08
82388;BME280;72027;47.420;9.310;2023-11-22T06:27:38;93755.50;;;2.60;98.00
82388;BME280;72027;47.420;9.310;2023-11-22T06:30:07;93750.03;;;2.60;98.55
82388;BME280;72027;47.420;9.310;2023-11-22T06:32:35;93753.19;;;2.58;98.41
82388;BME280;72027;47.420;9.310;2023-11-22T06:35:04;93755.59;;;2.53;97.50
82388;BME280;72027;47.420;9.310;2023-11-22T06:37:35;93763.44;;;2.51;97.32
82388;BME280;72027;47.420;9.310;2023-11-22T06:40:03;93777.91;;;2.48;97.53
82388;BME280;72027;47.420;9.310;2023-11-22T06:42:33;93763.09;;;2.41;97.11
82388;BME280;72027;47.420;9.310;2023-11-22T06:45:01;93758.84;;;2.40;97.95
82388;BME280;72027;47.420;9.310;2023-11-22T06:47:29;93767.09;;;2.33;96.98
82388;BME280;72027;47.420;9.310;2023-11-22T06:49:56;93768.75;;;2.24;96.96
82388;BME280;72027;47.420;9.310;2023-11-22T06:52:24;93771.16;;;2.14;96.63
82388;BME280;72027;47.420;9.310;2023-11-22T06:54:52;93778.22;;;2.12;96.94
82388;BME280;72027;47.420;9.310;2023-11-22T06:57:20;93785.72;;;2.01;97.09
82388;BME280;72027;47.420;9.310;2023-11-22T06:59:56;93800.63;;;1.92;96.59
82388;BME280;72027;47.420;9.310;2023-11-22T07:02:24;93805.72;;;1.87;96.67
82388;BME280;72027;47.420;9.310;2023-11-22T07:04:52;93812.78;;;1.84;96.84
82388;BME280;72027;47.420;9.310;2023-11-22T07:07:20;93819.44;;;1.80;96.77
82388;BME280;72027;47.420;9.310;2023-11-22T07:09:48;93816.72;;;1.72;96.69
82388;BME280;72027;47.420;9.310;2023-11-22T07:12:16;93826.13;;;1.64;97.20
82388;BME280;72027;47.420;9.310;2023-11-22T07:14:45;93820.75;;;1.57;96.65
82388;BME280;72027;47.420;9.310;2023-11-22T07:17:16;93837.91;;;1.50;97.24
82388;BME280;72027;47.420;9.310;2023-11-22T07:19:45;93832.06;;;1.48;96.39
82388;BME280;72027;47.420;9.310;2023-11-22T07:22:13;93848.88;;;1.43;97.15
82388;BME280;72027;47.420;9.310;2023-11-22T07:24:43;93851.22;;;1.38;97.13
82388;BME280;72027;47.420;9.310;2023-11-22T07:27:11;93860.22;;;1.35;97.16
82388;BME280;72027;47.420;9.310;2023-11-22T07:29:40;93861.41;;;1.30;96.68
82388;BME280;72027;47.420;9.310;2023-11-22T07:32:08;93870.00;;;1.28;97.87
82388;BME280;72027;47.420;9.310;2023-11-22T07:34:39;93874.28;;;1.26;97.99
82388;BME280;72027;47.420;9.310;2023-11-22T07:37:07;93883.66;;;1.21;98.08
82388;BME280;72027;47.420;9.310;2023-11-22T07:39:36;93884.06;;;1.16;97.15
82388;BME280;72027;47.420;9.310;2023-11-22T07:42:05;93877.44;;;1.14;97.78
82388;BME280;72027;47.420;9.310;2023-11-22T07:44:34;93889.53;;;1.13;98.11
82388;BME280;72027;47.420;9.310;2023-11-22T07:47:04;93890.72;;;1.08;97.32
82388;BME280;72027;47.420;9.310;2023-11-22T07:49:34;93890.72;;;1.04;97.36
82388;BME280;72027;47.420;9.310;2023-11-22T07:52:05;93892.66;;;1.00;97.74
82388;BME280;72027;47.420;9.310;2023-11-22T07:54:33;93898.91;;;1.01;96.87
82388;BME280;72027;47.420;9.310;2023-11-22T07:57:02;93906.72;;;0.99;97.04
82388;BME280;72027;47.420;9.310;2023-11-22T07:59:30;93918.00;;;0.97;97.14
82388;BME280;72027;47.420;9.310;2023-11-22T08:01:58;93935.56;;;0.96;97.24
82388;BME280;72027;47.420;9.310;2023-11-22T08:04:28;93928.53;;;0.92;98.06
82388;BME280;72027;47.420;9.310;2023-11-22T08:06:58;93931.28;;;0.92;97.76
82388;BME280;72027;47.420;9.310;2023-11-22T08:09:29;93930.50;;;0.91;98.56
82388;BME280;72027;47.420;9.310;2023-11-22T08:11:59;93935.97;;;0.91;98.81
82388;BME280;72027;47.420;9.310;2023-11-22T08:14:31;93940.63;;;0.91;97.84
82388;BME280;72027;47.420;9.310;2023-11-22T08:17:00;93950.75;;;0.90;98.07
82388;BME280;72027;47.420;9.310;2023-11-22T08:19:28;93949.19;;;0.89;97.60
82388;BME280;72027;47.420;9.310;2023-11-22T08:21:56;93953.88;;;0.85;97.64
82388;BME280;72027;47.420;9.310;2023-11-22T08:24:24;93964.78;;;0.85;97.40
82388;BME280;72027;47.420;9.310;2023-11-22T08:26:53;93960.91;;;0.86;98.18
82388;BME280;72027;47.420;9.310;2023-11-22T08:29:21;93957.78;;;0.91;98.49
82388;BME280;72027;47.420;9.310;2023-11-22T08:31:49;93964.03;;;0.88;98.56
82388;BME280;72027;47.420;9.310;2023-11-22T08:34:17;93956.59;;;0.92;98.74
82388;BME280;72027;47.420;9.310;2023-11-22T08:36:45;93953.50;;;0.94;98.09
82388;BME280;72027;47.420;9.310;2023-11-22T08:39:13;93967.50;;;0.92;98.10
82388;BME280;72027;47.420;9.310;2023-11-22T08:41:41;93971.78;;;0.90;98.12
82388;BME280;72027;47.420;9.310;2023-11-22T08:44:10;93976.09;;;0.87;98.72
82388;BME280;72027;47.420;9.310;2023-11-22T08:46:37;93977.25;;;0.90;98.58
82388;BME280;72027;47.420;9.310;2023-11-22T08:49:05;93974.94;;;0.88;98.97
82388;BME280;72027;47.420;9.310;2023-11-22T08:51:33;93986.22;;;0.90;98.36
82388;BME280;72027;47.420;9.310;2023-11-22T08:54:01;93985.84;;;0.88;98.17
82388;BME280;72027;47.420;9.310;2023-11-22T08:56:29;93991.66;;;0.86;98.63
82388;BME280;72027;47.420;9.310;2023-11-22T08:58:57;93995.19;;;0.91;97.98
82388;BME280;72027;47.420;9.310;2023-11-22T09:01:26;94001.44;;;0.91;98.97
82388;BME280;72027;47.420;9.310;2023-11-22T09:03:54;93996.75;;;0.92;98.56
82388;BME280;72027;47.420;9.310;2023-11-22T09:06:23;94007.66;;;0.92;98.52
82388;BME280;72027;47.420;9.310;2023-11-22T09:08:51;94019.34;;;0.92;97.76
82388;BME280;72027;47.420;9.310;2023-11-22T09:11:20;94015.47;;;0.93;98.40
82388;BME280;72027;47.420;9.310;2023-11-22T09:13:49;94016.22;;;0.94;97.79
82388;BME280;72027;47.420;9.310;2023-11-22T09:16:17;94011.56;;;0.94;97.73
82388;BME280;72027;47.420;9.310;2023-11-22T09:18:47;94020.13;;;0.93;98.86
82388;BME280;72027;47.420;9.310;2023-11-22T09:21:15;94018.56;;;0.92;98.04
82388;BME280;72027;47.420;9.310;2023-11-22T09:23:43;94021.69;;;0.97;98.49
82388;BME280;72027;47.420;9.310;2023-11-22T09:26:11;94027.13;;;1.01;98.38
82388;BME280;72027;47.420;9.310;2023-11-22T09:28:39;94029.47;;;1.02;97.41
82388;BME280;72027;47.420;9.310;2023-11-22T09:31:07;94024.41;;;1.04;97.05
82388;BME280;72027;47.420;9.310;2023-11-22T09:33:38;94020.53;;;1.02;96.99
82388;BME280;72027;47.420;9.310;2023-11-22T09:36:08;94021.66;;;1.01;97.03
82388;BME280;72027;47.420;9.310;2023-11-22T09:38:37;94022.06;;;0.99;96.95
82388;BME280;72027;47.420;9.310;2023-11-22T09:41:05;94015.44;;;0.97;97.84
82388;BME280;72027;47.420;9.310;2023-11-22T09:43:35;94016.22;;;0.97;96.75
82388;BME280;72027;47.420;9.310;2023-11-22T09:46:03;94022.47;;;0.94;96.61
82388;BME280;72027;47.420;9.310;2023-11-22T09:48:31;94015.44;;;0.90;97.83
82388;BME280;72027;47.420;9.310;2023-11-22T09:51:03;94030.25;;;0.85;97.28
82388;BME280;72027;47.420;9.310;2023-11-22T09:53:36;94034.53;;;0.86;97.39
82388;BME280;72027;47.420;9.310;2023-11-22T09:56:08;94035.69;;;0.85;97.79
82388;BME280;72027;47.420;9.310;2023-11-22T09:58:39;94035.69;;;0.85;97.53
82388;BME280;72027;47.420;9.310;2023-11-22T10:01:10;94029.88;;;0.83;97.65
82388;BME280;72027;47.420;9.310;2023-11-22T10:03:40;94028.28;;;0.82;98.31
82388;BME280;72027;47.420;9.310;2023-11-22T10:06:08;94029.47;;;0.92;97.46
82388;BME280;72027;47.420;9.310;2023-11-22T10:08:37;94031.03;;;1.00;98.03
82388;BME280;72027;47.420;9.310;2023-11-22T10:11:05;94025.19;;;1.12;97.57
82388;BME280;72027;47.420;9.310;2023-11-22T10:13:33;94024.03;;;1.20;97.88
82388;BME280;72027;47.420;9.310;2023-11-22T10:16:09;94028.69;;;1.27;97.99
82388;BME280;72027;47.420;9.310;2023-11-22T10:18:39;94020.13;;;1.28;97.89
82388;BME280;72027;47.420;9.310;2023-11-22T10:21:19;94023.25;;;1.20;96.87
82388;BME280;72027;47.420;9.310;2023-11-22T10:23:48;94022.06;;;1.14;96.26
82388;BME280;72027;47.420;9.310;2023-11-22T10:26:18;94024.81;;;1.06;96.15
82388;BME280;72027;47.420;9.310;2023-11-22T10:28:46;94022.84;;;0.96;96.38
82388;BME280;72027;47.420;9.310;2023-11-22T10:31:13;94024.00;;;0.95;96.41
82388;BME280;72027;47.420;9.310;2023-11-22T10:33:42;94029.09;;;0.93;96.29
82388;BME280;72027;47.420;9.310;2023-11-22T10:36:10;94020.91;;;0.90;96.46
82388;BME280;72027;47.420;9.310;2023-11-22T10:38:38;94019.34;;;0.88;97.20
82388;BME280;72027;47.420;9.310;2023-11-22T10:41:08;94022.47;;;0.94;97.03
82388;BME280;72027;47.420;9.310;2023-11-22T10:43:37;94015.06;;;0.91;96.92
82388;BME280;72027;47.420;9.310;2023-11-22T10:46:05;94022.47;;;0.94;97.50
82388;BME280;72027;47.420;9.310;2023-11-22T10:48:36;94014.66;;;0.89;96.60
82388;BME280;72027;47.420;9.310;2023-11-22T10:51:04;94016.22;;;0.90;97.52
82388;BME280;72027;47.420;9.310;2023-11-22T10:53:33;94023.25;;;0.91;96.75
82388;BME280;72027;47.420;9.310;2023-11-22T10:56:07;94024.03;;;0.88;97.14
82388;BME280;72027;47.420;9.310;2023-11-22T10:58:46;94025.97;;;0.84;97.34
82388;BME280;72027;47.420;9.310;2023-11-22T11:01:15;94029.47;;;0.81;96.88
82388;BME280;72027;47.420;9.310;2023-11-22T11:03:47;94031.41;;;0.77;96.36
82388;BME280;72027;47.420;9.310;2023-11-22T11:06:20;94040.00;;;0.75;97.27
82388;BME280;72027;47.420;9.310;2023-11-22T11:08:55;94050.50;;;0.73;96.55
82388;BME280;72027;47.420;9.310;2023-11-22T11:11:23;94048.16;;;0.72;96.78
82388;BME280;72027;47.420;9.310;2023-11-22T11:13:54;94044.25;;;0.69;96.09
82388;BME280;72027;47.420;9.310;2023-11-22T11:16:22;94048.94;;;0.65;96.87
82388;BME280;72027;47.420;9.310;2023-11-22T11:18:50;94047.75;;;0.66;96.69
82388;BME280;72027;47.420;9.310;2023-11-22T11:21:19;94060.59;;;0.58;95.74
82388;BME280;72027;47.420;9.310;2023-11-22T11:23:51;94059.81;;;0.54;96.36
82388;BME280;72027;47.420;9.310;2023-11-22T11:26:25;94062.91;;;0.49;95.98
82388;BME280;72027;47.420;9.310;2023-11-22T11:28:54;94073.00;;;0.45;96.74
82388;BME280;72027;47.420;9.310;2023-11-22T11:31:22;94073.78;;;0.42;96.66
82388;BME280;72027;47.420;9.310;2023-11-22T11:33:54;94072.25;;;0.41;96.98
82388;BME280;72027;47.420;9.310;2023-11-22T11:36:23;94071.47;;;0.40;96.42
82388;BME280;72027;47.420;9.310;2023-11-22T11:38:52;94079.25;;;0.38;96.48
82388;BME280;72027;47.420;9.310;2023-11-22T11:41:25;94082.34;;;0.33;96.45
82388;BME280;72027;47.420;9.310;2023-11-22T11:43:56;94085.06;;;0.30;97.03
82388;BME280;72027;47.420;9.310;2023-11-22T11:46:24;94078.03;;;0.29;97.20
82388;BME280;72027;47.420;9.310;2023-11-22T11:48:54;94079.97;;;0.32;97.76
82388;BME280;72027;47.420;9.310;2023-11-22T11:51:22;94081.16;;;0.34;97.77
82388;BME280;72027;47.420;9.310;2023-11-22T11:53:51;94085.47;;;0.35;97.86
82388;BME280;72027;47.420;9.310;2023-11-22T11:56:19;94088.19;;;0.39;96.75
82388;BME280;72027;47.420;9.310;2023-11-22T11:58:49;94085.88;;;0.41;96.89
82388;BME280;72027;47.420;9.310;2023-11-22T12:01:18;94089.38;;;0.41;96.76
82388;BME280;72027;47.420;9.310;2023-11-22T12:03:48;94071.06;;;0.42;97.58
82388;BME280;72027;47.420;9.310;2023-11-22T12:06:17;94083.91;;;0.41;96.37
82388;BME280;72027;47.420;9.310;2023-11-22T12:08:46;94083.53;;;0.43;97.03
82388;BME280;72027;47.420;9.310;2023-11-22T12:11:14;94081.97;;;0.42;96.22
82388;BME280;72027;47.420;9.310;2023-11-22T12:13:44;94080.81;;;0.43;96.11
82388;BME280;72027;47.420;9.310;2023-11-22T12:16:17;94080.81;;;0.43;96.41
82388;BME280;72027;47.420;9.310;2023-11-22T12:18:46;94077.69;;;0.44;96.35
82388;BME280;72027;47.420;9.310;2023-11-22T12:21:16;94073.00;;;0.41;96.43
82388;BME280;72027;47.420;9.310;2023-11-22T12:23:46;94071.47;;;0.40;96.01
82388;BME280;72027;47.420;9.310;2023-11-22T12:26:16;94066.38;;;0.39;96.45
82388;BME280;72027;47.420;9.310;2023-11-22T12:28:45;94064.44;;;0.39;95.99
82388;BME280;72027;47.420;9.310;2023-11-22T12:31:20;94059.75;;;0.36;96.72
82388;BME280;72027;47.420;9.310;2023-11-22T12:33:49;94070.28;;;0.38;96.95
82388;BME280;72027;47.420;9.310;2023-11-22T12:36:18;94062.88;;;0.38;96.25
82388;BME280;72027;47.420;9.310;2023-11-22T12:38:47;94069.09;;;0.39;96.33
82388;BME280;72027;47.420;9.310;2023-11-22T12:41:15;94067.56;;;0.38;96.12
82388;BME280;72027;47.420;9.310;2023-11-22T12:43:44;94076.13;;;0.40;96.06
82388;BME280;72027;47.420;9.310;2023-11-22T12:46:44;94078.47;;;0.38;96.02
82388;BME280;72027;47.420;9.310;2023-11-22T12:49:12;94087.78;;;0.37;96.23
82388;BME280;72027;47.420;9.310;2023-11-22T12:51:46;94090.50;;;0.37;96.66
82388;BME280;72027;47.420;9.310;2023-11-22T12:54:13;94089.38;;;0.38;96.23
82388;BME280;72027;47.420;9.310;2023-11-22T12:56:41;94088.19;;;0.39;96.16
82388;BME280;72027;47.420;9.310;2023-11-22T12:59:10;94085.88;;;0.41;96.90
82388;BME280;72027;47.420;9.310;2023-11-22T13:01:40;94085.88;;;0.44;96.94
82388;BME280;72027;47.420;9.310;2023-11-22T13:04:08;94085.47;;;0.42;97.10
82388;BME280;72027;47.420;9.310;2023-11-22T13:06:36;94110.00;;;0.42;96.34
82388;BME280;72027;47.420;9.310;2023-11-22T13:09:04;94110.00;;;0.42;96.26
82388;BME280;72027;47.420;9.310;2023-11-22T13:11:33;94115.06;;;0.40;95.56
82388;BME280;72027;47.420;9.310;2023-11-22T13:14:01;94131.03;;;0.38;96.30
82388;BME280;72027;47.420;9.310;2023-11-22T13:16:29;94124.41;;;0.36;96.00
82388;BME280;72027;47.420;9.310;2023-11-22T13:19:00;94140.38;;;0.37;95.84